createdAt,value
2023-05-14T00:01:20.304Z,50.54
2023-05-14T00:03:47.205Z,50.79
2023-05-14T00:06:15.506Z,51.05
2023-05-14T00:08:42.339Z,50.93
2023-05-14T00:11:09.338Z,50.81
2023-05-14T00:13:36.533Z,50.88
2023-05-14T00:16:03.684Z,50.81
2023-05-14T00:18:30.656Z,50.81
2023-05-14T00:20:57.570Z,50.92
2023-05-14T00:23:24.572Z,50.97
2023-05-14T00:25:51.387Z,50.81
2023-05-14T00:28:18.153Z,50.83
2023-05-14T00:30:45.224Z,50.73
2023-05-14T00:33:12.370Z,50.64
2023-05-14T00:35:39.263Z,50.56
2023-05-14T00:38:06.275Z,50.50
2023-05-14T00:40:33.974Z,50.50
2023-05-14T00:43:01.066Z,50.39
2023-05-14T00:45:28.256Z,50.31
2023-05-14T00:47:55.173Z,50.37
2023-05-14T00:50:22.978Z,50.20
2023-05-14T00:52:50.030Z,50.33
2023-05-14T00:55:17.213Z,50.21
2023-05-14T00:57:44.381Z,50.06
2023-05-14T01:00:11.773Z,50.23
2023-05-14T01:02:38.881Z,50.07
2023-05-14T01:05:06.832Z,49.90
2023-05-14T01:08:00.763Z,49.85
2023-05-14T01:10:45.584Z,50.33
2023-05-14T01:13:36.371Z,50.31
2023-05-14T01:16:05.061Z,50.41
2023-05-14T01:18:32.937Z,50.50
2023-05-14T01:20:59.751Z,50.48
2023-05-14T01:23:26.517Z,50.73
2023-05-14T01:25:53.319Z,50.89
2023-05-14T01:28:29.564Z,51.04
2023-05-14T01:31:08.452Z,51.12
2023-05-14T01:33:37.081Z,50.99
2023-05-14T01:36:04.886Z,51.09
2023-05-14T01:38:33.995Z,51.07
2023-05-14T01:41:01.470Z,50.89
2023-05-14T01:43:30.003Z,50.92
2023-05-14T01:45:56.879Z,51.08
2023-05-14T01:48:25.336Z,51.08
2023-05-14T01:50:52.638Z,51.14
2023-05-14T01:53:19.598Z,51.01
2023-05-14T01:55:46.500Z,51.00
2023-05-14T01:58:13.395Z,51.04
2023-05-14T02:00:40.193Z,50.93
2023-05-14T02:03:07.093Z,51.04
2023-05-14T02:05:34.255Z,50.93
2023-05-14T02:08:01.127Z,51.21
2023-05-14T02:10:28.054Z,50.83
2023-05-14T02:12:55.946Z,50.93
2023-05-14T02:15:22.897Z,50.66
2023-05-14T02:17:49.742Z,50.74
2023-05-14T02:20:16.699Z,50.81
2023-05-14T02:22:45.632Z,50.75
2023-05-14T02:25:12.752Z,50.98
2023-05-14T02:27:39.513Z,51.10
2023-05-14T02:30:07.100Z,51.32
2023-05-14T02:32:34.077Z,51.31
2023-05-14T02:35:01.080Z,51.56
2023-05-14T02:37:27.944Z,51.60
2023-05-14T02:39:54.789Z,51.77
2023-05-14T02:42:23.045Z,51.84
2023-05-14T02:44:50.192Z,51.39
2023-05-14T02:47:16.988Z,51.52
2023-05-14T02:49:43.785Z,51.66
2023-05-14T02:52:10.622Z,51.60
2023-05-14T02:54:37.627Z,51.67
2023-05-14T02:57:04.881Z,51.71
2023-05-14T02:59:31.924Z,51.80
2023-05-14T03:01:59.364Z,51.91
2023-05-14T03:04:26.718Z,52.05
2023-05-14T03:06:53.702Z,52.29
2023-05-14T03:09:20.597Z,52.24
2023-05-14T03:11:47.399Z,52.37
2023-05-14T03:14:14.328Z,52.42
2023-05-14T03:16:42.133Z,52.31
2023-05-14T03:19:09.791Z,52.27
2023-05-14T03:21:36.764Z,52.39
2023-05-14T03:24:03.650Z,52.18
2023-05-14T03:26:30.460Z,52.68
2023-05-14T03:28:57.328Z,52.49
2023-05-14T03:31:25.033Z,52.58
2023-05-14T03:33:52.093Z,52.76
2023-05-14T03:36:18.906Z,52.88
2023-05-14T03:38:47.928Z,52.58
2023-05-14T03:41:15.670Z,52.50
2023-05-14T03:43:42.780Z,52.69
2023-05-14T03:46:09.671Z,52.49
2023-05-14T03:48:36.660Z,52.58
2023-05-14T03:51:05.279Z,52.25
2023-05-14T03:53:32.061Z,52.28
2023-05-14T03:55:58.842Z,52.14
2023-05-14T03:58:26.203Z,52.09
2023-05-14T04:00:53.617Z,52.33
2023-05-14T04:03:20.594Z,51.98
2023-05-14T04:05:47.478Z,52.30
2023-05-14T04:08:14.288Z,52.24
2023-05-14T04:10:42.036Z,52.05
2023-05-14T04:13:08.898Z,52.22
2023-05-14T04:15:39.267Z,52.08
2023-05-14T04:18:06.189Z,52.39
2023-05-14T04:20:33.088Z,52.44
2023-05-14T04:22:59.886Z,52.67
2023-05-14T04:25:26.774Z,52.33
2023-05-14T04:27:53.670Z,52.52
2023-05-14T04:30:21.010Z,52.65
2023-05-14T04:32:48.006Z,52.36
2023-05-14T04:35:14.843Z,52.50
2023-05-14T04:37:41.774Z,52.40
2023-05-14T04:40:12.562Z,52.74
2023-05-14T04:42:39.402Z,52.71
2023-05-14T04:45:07.279Z,52.89
2023-05-14T04:47:34.346Z,52.72
2023-05-14T04:50:01.254Z,52.86
2023-05-14T04:52:28.093Z,52.99
2023-05-14T04:54:55.046Z,53.02
2023-05-14T04:57:22.046Z,52.95
2023-05-14T04:59:48.850Z,52.96
2023-05-14T05:02:15.700Z,53.06
2023-05-14T05:04:42.691Z,53.08
2023-05-14T05:07:09.499Z,52.78
2023-05-14T05:09:36.359Z,52.88
2023-05-14T05:12:03.195Z,52.76
2023-05-14T05:14:30.026Z,52.75
2023-05-14T05:16:56.824Z,53.05
2023-05-14T05:19:35.639Z,52.95
2023-05-14T05:22:07.005Z,53.01
2023-05-14T05:24:33.791Z,52.99
2023-05-14T05:27:00.660Z,52.98
2023-05-14T05:29:27.501Z,52.89
2023-05-14T05:31:54.411Z,53.03
2023-05-14T05:34:21.545Z,53.10
2023-05-14T05:36:48.411Z,53.08
2023-05-14T05:39:15.226Z,53.08
2023-05-14T05:41:43.461Z,53.22
2023-05-14T05:44:10.319Z,53.26
2023-05-14T05:46:37.462Z,53.25
2023-05-14T05:49:04.266Z,52.97
2023-05-14T05:51:31.428Z,53.35
2023-05-14T05:53:58.242Z,52.96
2023-05-14T05:56:25.108Z,53.08
2023-05-14T05:58:52.019Z,53.06
2023-05-14T06:01:18.848Z,53.01
2023-05-14T06:03:48.261Z,52.76
2023-05-14T06:06:15.588Z,52.69
2023-05-14T06:08:42.500Z,52.85
2023-05-14T06:11:10.343Z,52.84
2023-05-14T06:13:37.114Z,52.80
2023-05-14T06:16:04.055Z,52.51
2023-05-14T06:18:30.940Z,52.71
2023-05-14T06:20:59.952Z,52.24
2023-05-14T06:23:27.107Z,52.25
2023-05-14T06:25:54.202Z,52.27
2023-05-14T06:28:21.212Z,52.35
2023-05-14T06:30:50.583Z,52.39
2023-05-14T06:33:19.411Z,52.53
2023-05-14T06:35:47.322Z,52.60
2023-05-14T06:38:14.116Z,52.30
2023-05-14T06:40:40.866Z,52.22
2023-05-14T06:43:07.689Z,52.49
2023-05-14T06:45:34.566Z,52.46
2023-05-14T06:48:01.512Z,52.51
2023-05-14T06:50:28.476Z,52.79
2023-05-14T06:52:55.336Z,52.36
2023-05-14T06:55:22.257Z,52.36
2023-05-14T06:57:49.064Z,52.22
2023-05-14T07:00:16.895Z,51.89
2023-05-14T07:02:43.751Z,51.85
2023-05-14T07:05:11.171Z,51.82
2023-05-14T07:07:37.974Z,51.70
2023-05-14T07:10:05.828Z,51.39
2023-05-14T07:12:32.596Z,51.63
2023-05-14T07:14:59.401Z,51.61
2023-05-14T07:17:26.257Z,51.52
2023-05-14T07:19:55.427Z,51.68
2023-05-14T07:22:22.552Z,51.24
2023-05-14T07:24:50.301Z,51.15
2023-05-14T07:27:17.249Z,51.00
2023-05-14T07:29:44.349Z,50.85
2023-05-14T07:32:12.731Z,51.00
2023-05-14T07:34:40.832Z,50.87
2023-05-14T07:37:07.699Z,50.88
2023-05-14T07:39:34.544Z,51.12
2023-05-14T07:42:01.959Z,51.24
2023-05-14T07:44:28.800Z,50.96
2023-05-14T07:46:55.736Z,50.88
2023-05-14T07:49:22.563Z,50.80
2023-05-14T07:51:49.359Z,50.54
2023-05-14T07:54:16.759Z,50.35
2023-05-14T07:56:44.417Z,50.54
2023-05-14T07:59:11.202Z,50.35
2023-05-14T08:01:39.312Z,50.18
2023-05-14T08:04:06.639Z,49.92
2023-05-14T08:06:33.949Z,50.02
2023-05-14T08:09:00.943Z,49.74
2023-05-14T08:11:27.929Z,49.76
2023-05-14T08:13:54.786Z,49.53
2023-05-14T08:16:21.846Z,49.36
2023-05-14T08:18:48.926Z,49.07
2023-05-14T08:21:15.850Z,49.04
2023-05-14T08:23:42.790Z,48.90
2023-05-14T08:26:10.738Z,48.77
2023-05-14T08:28:37.574Z,48.77
2023-05-14T08:31:04.407Z,48.83
2023-05-14T08:33:31.314Z,48.98
2023-05-14T08:36:00.448Z,48.74
2023-05-14T08:38:27.307Z,48.86
2023-05-14T08:41:01.111Z,48.39
2023-05-14T08:43:45.243Z,48.63
2023-05-14T08:46:15.294Z,48.54
2023-05-14T08:48:43.690Z,48.38
2023-05-14T08:51:10.582Z,48.35
2023-05-14T08:53:38.410Z,48.43
2023-05-14T08:56:07.037Z,48.67
2023-05-14T08:58:33.980Z,48.55
2023-05-14T09:01:00.824Z,48.84
2023-05-14T09:03:28.634Z,48.95
2023-05-14T09:05:56.452Z,48.85
2023-05-14T09:08:24.292Z,48.65
2023-05-14T09:10:51.490Z,48.51
2023-05-14T09:13:18.528Z,48.52
2023-05-14T09:15:46.203Z,47.84
2023-05-14T09:18:13.121Z,47.53
2023-05-14T09:20:40.649Z,47.51
2023-05-14T09:23:07.497Z,46.88
2023-05-14T09:25:34.312Z,46.54
2023-05-14T09:28:07.645Z,46.53
2023-05-14T09:30:36.927Z,45.95
2023-05-14T09:33:04.266Z,45.45
2023-05-14T09:35:32.284Z,45.11
2023-05-14T09:37:59.190Z,45.26
2023-05-14T09:40:26.222Z,44.68
2023-05-14T09:42:53.330Z,44.69
2023-05-14T09:45:20.207Z,44.49
2023-05-14T09:47:47.258Z,44.45
2023-05-14T09:50:14.431Z,44.30
2023-05-14T09:52:41.285Z,43.85
2023-05-14T09:55:08.665Z,43.37
2023-05-14T09:57:35.754Z,43.75
2023-05-14T10:00:02.924Z,43.56
2023-05-14T10:02:37.740Z,43.58
2023-05-14T10:05:06.420Z,43.22
2023-05-14T10:07:44.645Z,43.79
2023-05-14T10:10:16.868Z,43.75
2023-05-14T10:12:57.480Z,43.00
2023-05-14T10:15:34.775Z,42.74
2023-05-14T10:18:12.362Z,42.59
2023-05-14T10:20:41.384Z,42.70
2023-05-14T10:23:08.249Z,42.37
2023-05-14T10:25:36.918Z,42.09
2023-05-14T10:28:05.931Z,41.57
2023-05-14T10:30:32.990Z,41.67
2023-05-14T10:33:18.340Z,41.09
2023-05-14T10:36:06.660Z,41.36
2023-05-14T10:38:36.082Z,41.30
2023-05-14T10:41:07.054Z,41.12
2023-05-14T10:43:39.161Z,41.12
2023-05-14T10:46:07.663Z,40.95
2023-05-14T10:48:36.889Z,40.85
2023-05-14T10:51:03.844Z,41.57
2023-05-14T10:53:48.930Z,42.10
2023-05-14T10:56:15.840Z,41.77
2023-05-14T10:58:44.729Z,41.11
2023-05-14T11:01:13.227Z,41.23
2023-05-14T11:03:42.298Z,41.11
2023-05-14T11:06:11.181Z,41.33
2023-05-14T11:08:39.226Z,40.82
2023-05-14T11:11:10.150Z,40.45
2023-05-14T11:13:37.547Z,40.24
2023-05-14T11:16:21.147Z,39.90
2023-05-14T11:19:02.110Z,39.99
2023-05-14T11:21:30.358Z,40.05
2023-05-14T11:23:57.762Z,40.10
2023-05-14T11:26:24.694Z,39.91
2023-05-14T11:28:51.991Z,40.01
2023-05-14T11:31:19.201Z,40.21
2023-05-14T11:33:46.449Z,40.09
2023-05-14T11:36:13.450Z,40.40
2023-05-14T11:38:51.259Z,40.99
2023-05-14T11:41:20.798Z,41.16
2023-05-14T11:43:48.189Z,41.56
2023-05-14T11:46:18.817Z,41.85
2023-05-14T11:48:46.021Z,42.30
2023-05-14T11:51:13.040Z,41.94
2023-05-14T11:53:39.926Z,42.41
2023-05-14T11:56:09.031Z,42.30
2023-05-14T11:58:36.716Z,43.09
2023-05-14T12:01:03.592Z,42.20
2023-05-14T12:03:31.012Z,42.01
2023-05-14T12:05:59.655Z,42.14
2023-05-14T12:08:28.100Z,41.48
2023-05-14T12:10:55.369Z,42.09
2023-05-14T12:13:26.358Z,42.47
2023-05-14T12:15:59.275Z,42.41
2023-05-14T12:18:31.567Z,42.86
2023-05-14T12:21:08.232Z,42.84
2023-05-14T12:23:35.443Z,42.36
2023-05-14T12:26:07.006Z,42.13
2023-05-14T12:28:38.411Z,41.62
2023-05-14T12:31:05.627Z,41.24
2023-05-14T12:33:32.559Z,41.55
2023-05-14T12:36:17.482Z,41.61
2023-05-14T12:38:48.352Z,41.36
2023-05-14T12:41:15.171Z,40.62
2023-05-14T12:43:47.904Z,40.14
2023-05-14T12:46:15.015Z,39.86
2023-05-14T12:48:41.807Z,39.93
2023-05-14T12:51:08.688Z,40.58
2023-05-14T12:53:35.708Z,41.04
2023-05-14T12:58:29.352Z,41.91
2023-05-14T13:00:56.416Z,42.18
2023-05-14T13:03:23.533Z,42.60
2023-05-14T13:05:52.263Z,43.49
2023-05-14T13:08:21.448Z,44.15
2023-05-14T13:10:48.508Z,44.45
2023-05-14T13:13:15.827Z,44.73
2023-05-14T13:15:42.663Z,45.00
2023-05-14T13:18:09.572Z,44.81
2023-05-14T13:20:36.761Z,45.28
2023-05-14T13:23:03.609Z,45.48
2023-05-14T13:25:30.514Z,45.37
2023-05-14T13:27:57.445Z,44.69
2023-05-14T13:30:24.359Z,44.42
2023-05-14T13:32:51.397Z,43.88
2023-05-14T13:35:18.645Z,43.77
2023-05-14T13:40:12.823Z,44.00
2023-05-14T13:45:07.915Z,43.58
2023-05-14T13:47:34.824Z,43.36
2023-05-14T13:50:01.660Z,43.59
2023-05-14T13:52:28.487Z,43.53
2023-05-14T13:54:58.017Z,43.48
2023-05-14T13:57:24.949Z,43.53
2023-05-14T13:59:51.756Z,43.66
2023-05-14T14:02:18.595Z,43.70
2023-05-14T14:04:45.476Z,43.84
2023-05-14T14:07:12.315Z,44.60
2023-05-14T14:09:39.165Z,44.90
2023-05-14T14:12:06.601Z,44.82
2023-05-14T14:14:33.553Z,45.14
2023-05-14T14:17:00.665Z,45.90
2023-05-14T14:19:27.506Z,46.48
2023-05-14T14:21:54.545Z,46.46
2023-05-14T14:24:21.361Z,47.28
2023-05-14T14:26:48.151Z,46.90
2023-05-14T14:29:14.935Z,46.99
2023-05-14T14:31:41.803Z,47.07
2023-05-14T14:34:08.773Z,47.03
2023-05-14T14:36:35.730Z,47.01
2023-05-14T14:39:02.513Z,46.25
2023-05-14T14:41:29.754Z,45.53
2023-05-14T14:43:56.719Z,45.22
2023-05-14T14:46:23.601Z,44.95
2023-05-14T14:48:50.441Z,44.55
2023-05-14T14:51:17.287Z,44.11
2023-05-14T14:53:44.178Z,43.89
2023-05-14T14:56:11.121Z,43.99
2023-05-14T14:58:38.251Z,43.84
2023-05-14T15:01:05.270Z,44.09
2023-05-14T15:03:32.371Z,44.13
2023-05-14T15:05:59.422Z,44.38
2023-05-14T15:08:28.009Z,43.87
2023-05-14T15:10:59.271Z,44.53
2023-05-14T15:13:26.860Z,44.14
2023-05-14T15:15:53.715Z,43.77
2023-05-14T15:18:20.784Z,43.37
2023-05-14T15:20:47.803Z,42.39
2023-05-14T15:23:14.619Z,42.22
2023-05-14T15:25:41.426Z,41.95
2023-05-14T15:28:08.417Z,41.81
2023-05-14T15:30:35.315Z,41.35
2023-05-14T15:33:02.287Z,41.05
2023-05-14T15:35:29.256Z,41.05
2023-05-14T15:37:57.325Z,40.75
2023-05-14T15:40:24.489Z,39.80
2023-05-14T15:42:51.499Z,39.12
2023-05-14T15:45:18.555Z,38.66
2023-05-14T15:47:45.501Z,39.29
2023-05-14T15:50:12.668Z,39.62
2023-05-14T15:52:39.952Z,38.89
2023-05-14T15:55:07.674Z,38.79
2023-05-14T15:57:34.663Z,38.58
2023-05-14T16:00:01.807Z,38.15
2023-05-14T16:02:33.148Z,39.22
2023-05-14T16:05:00.223Z,37.34
2023-05-14T16:07:27.112Z,36.40
2023-05-14T16:09:54.046Z,36.08
2023-05-14T16:12:20.864Z,35.46
2023-05-14T16:14:47.744Z,35.06
2023-05-14T16:17:14.649Z,35.47
2023-05-14T16:19:41.634Z,35.47
2023-05-14T16:22:08.506Z,35.47
2023-05-14T16:24:36.065Z,35.87
2023-05-14T16:27:04.783Z,35.96
2023-05-14T16:29:32.621Z,36.35
2023-05-14T16:31:59.936Z,36.37
2023-05-14T16:34:26.720Z,36.78
2023-05-14T16:36:53.538Z,36.98
2023-05-14T16:39:20.504Z,36.96
2023-05-14T16:41:47.351Z,37.25
2023-05-14T16:44:14.204Z,37.34
2023-05-14T16:46:41.010Z,37.81
2023-05-14T16:49:07.856Z,37.47
2023-05-14T16:51:34.807Z,37.42
2023-05-14T16:54:01.738Z,37.58
2023-05-14T16:56:29.260Z,37.93
2023-05-14T16:58:56.088Z,37.80
2023-05-14T17:01:22.956Z,37.64
2023-05-14T17:03:49.758Z,37.20
2023-05-14T17:06:16.611Z,36.28
2023-05-14T17:08:43.458Z,35.41
2023-05-14T17:11:10.419Z,34.38
2023-05-14T17:13:37.267Z,34.22
2023-05-14T17:16:04.370Z,33.43
2023-05-14T17:18:32.561Z,33.43
2023-05-14T17:20:59.483Z,33.48
2023-05-14T17:23:26.349Z,32.71
2023-05-14T17:25:53.166Z,32.69
2023-05-14T17:28:19.985Z,32.75
2023-05-14T17:30:46.749Z,32.64
2023-05-14T17:33:13.592Z,32.47
2023-05-14T17:35:40.467Z,32.04
2023-05-14T17:38:07.327Z,32.31
2023-05-14T17:40:34.697Z,32.43
2023-05-14T17:43:01.795Z,32.43
2023-05-14T17:45:34.141Z,32.62
2023-05-14T17:48:06.630Z,32.57
2023-05-14T17:50:33.502Z,32.75
2023-05-14T17:53:00.364Z,33.41
2023-05-14T17:55:27.209Z,33.44
2023-05-14T17:57:54.033Z,33.47
2023-05-14T18:00:20.932Z,33.51
2023-05-14T18:02:47.861Z,34.03
2023-05-14T18:05:14.796Z,34.38
2023-05-14T18:07:41.707Z,34.59
2023-05-14T18:10:08.853Z,34.88
2023-05-14T18:12:35.811Z,35.02
2023-05-14T18:15:02.584Z,35.29
2023-05-14T18:17:29.597Z,35.84
2023-05-14T18:19:56.395Z,35.70
2023-05-14T18:22:23.197Z,35.87
2023-05-14T18:24:49.988Z,36.37
2023-05-14T18:27:16.808Z,36.45
2023-05-14T18:29:43.690Z,36.83
2023-05-14T18:32:10.499Z,36.93
2023-05-14T18:34:37.333Z,37.29
2023-05-14T18:37:04.226Z,37.36
2023-05-14T18:39:31.158Z,37.14
2023-05-14T18:41:58.007Z,37.55
2023-05-14T18:44:24.850Z,37.79
2023-05-14T18:46:52.271Z,38.54
2023-05-14T18:49:19.106Z,38.34
2023-05-14T18:51:45.971Z,38.98
2023-05-14T18:54:12.792Z,38.85
2023-05-14T18:56:45.377Z,39.59
2023-05-14T18:59:13.651Z,39.50
2023-05-14T19:01:40.536Z,39.94
2023-05-14T19:04:08.068Z,39.91
2023-05-14T19:06:36.035Z,40.08
2023-05-14T19:09:02.858Z,40.58
2023-05-14T19:11:30.878Z,41.06
2023-05-14T19:13:57.883Z,40.80
2023-05-14T19:16:24.853Z,41.41
2023-05-14T19:18:51.828Z,41.35
2023-05-14T19:21:18.724Z,41.47
2023-05-14T19:23:45.645Z,41.33
2023-05-14T19:26:12.476Z,41.78
2023-05-14T19:28:39.315Z,41.56
2023-05-14T19:31:06.293Z,41.78
2023-05-14T19:33:33.220Z,41.99
2023-05-14T19:36:00.031Z,42.08
2023-05-14T19:38:27.171Z,42.32
2023-05-14T19:40:56.799Z,42.17
2023-05-14T19:43:27.864Z,42.14
2023-05-14T19:45:54.731Z,42.19
2023-05-14T19:48:21.557Z,42.30
2023-05-14T19:50:48.436Z,42.59
2023-05-14T19:53:15.413Z,42.62
2023-05-14T19:55:42.226Z,42.61
2023-05-14T19:58:11.961Z,42.64
2023-05-14T20:00:39.044Z,42.98
2023-05-14T20:03:07.347Z,43.17
2023-05-14T20:05:34.308Z,43.31
2023-05-14T20:08:01.156Z,43.58
2023-05-14T20:10:28.351Z,43.57
2023-05-14T20:12:55.358Z,43.78
2023-05-14T20:15:23.587Z,43.94
2023-05-14T20:17:50.472Z,44.07
2023-05-14T20:20:17.361Z,44.30
2023-05-14T20:22:44.960Z,44.41
2023-05-14T20:25:12.237Z,44.48
2023-05-14T20:27:39.105Z,44.61
2023-05-14T20:30:06.955Z,44.79
2023-05-14T20:32:34.170Z,44.72
2023-05-14T20:35:01.991Z,45.00
2023-05-14T20:37:30.468Z,44.73
2023-05-14T20:39:57.400Z,44.79
2023-05-14T20:42:25.453Z,44.97
2023-05-14T20:44:53.470Z,45.02
2023-05-14T20:47:24.064Z,45.34
2023-05-14T20:49:51.189Z,45.42
2023-05-14T20:52:18.750Z,45.74
2023-05-14T20:54:45.856Z,45.86
2023-05-14T20:57:17.921Z,46.03
2023-05-14T20:59:45.984Z,46.01
2023-05-14T21:02:12.978Z,46.12
2023-05-14T21:04:40.024Z,46.71
2023-05-14T21:07:07.202Z,46.83
2023-05-14T21:09:34.079Z,46.79
2023-05-14T21:12:00.947Z,47.17
2023-05-14T21:14:27.758Z,47.25
2023-05-14T21:16:54.542Z,47.54
2023-05-14T21:19:23.248Z,47.90
2023-05-14T21:21:50.314Z,47.78
2023-05-14T21:24:17.072Z,47.82
2023-05-14T21:26:43.875Z,47.93
2023-05-14T21:29:11.263Z,48.07
2023-05-14T21:31:38.129Z,48.22
2023-05-14T21:34:04.987Z,48.20
2023-05-14T21:36:31.917Z,48.29
2023-05-14T21:38:58.746Z,48.52
2023-05-14T21:41:25.597Z,48.22
2023-05-14T21:43:52.477Z,48.13
2023-05-14T21:46:19.380Z,48.39
2023-05-14T21:48:46.259Z,48.40
2023-05-14T21:51:13.202Z,48.17
2023-05-14T21:53:40.042Z,48.12
2023-05-14T21:56:07.997Z,48.02
2023-05-14T21:58:35.486Z,48.09
2023-05-14T22:01:02.386Z,48.08
2023-05-14T22:03:29.276Z,48.09
2023-05-14T22:05:56.150Z,47.92
2023-05-14T22:08:23.677Z,48.09
2023-05-14T22:10:50.630Z,47.97
2023-05-14T22:13:17.422Z,48.41
2023-05-14T22:15:44.551Z,48.32
2023-05-14T22:18:12.692Z,48.56
2023-05-14T22:20:40.030Z,48.58
2023-05-14T22:23:07.098Z,48.74
2023-05-14T22:25:34.120Z,48.78
2023-05-14T22:28:00.964Z,48.98
2023-05-14T22:30:27.809Z,49.10
2023-05-14T22:32:54.618Z,49.24
2023-05-14T22:35:21.575Z,49.31
2023-05-14T22:37:48.404Z,49.38
2023-05-14T22:40:15.257Z,49.43
2023-05-14T22:42:42.066Z,49.33
2023-05-14T22:45:09.537Z,49.66
2023-05-14T22:47:37.573Z,49.84
2023-05-14T22:50:11.014Z,49.44
2023-05-14T22:52:41.483Z,49.61
2023-05-14T22:55:08.818Z,49.51
2023-05-14T22:57:35.669Z,49.50
2023-05-14T23:00:04.421Z,49.60
2023-05-14T23:02:31.294Z,49.78
2023-05-14T23:04:58.128Z,49.60
2023-05-14T23:07:25.169Z,49.84
2023-05-14T23:09:52.042Z,49.64
2023-05-14T23:12:18.944Z,49.83
2023-05-14T23:14:45.968Z,49.60
2023-05-14T23:17:14.513Z,49.63
2023-05-14T23:19:41.513Z,49.64
2023-05-14T23:22:08.455Z,49.62
2023-05-14T23:24:35.332Z,49.69
2023-05-14T23:27:02.352Z,49.49
2023-05-14T23:29:29.195Z,49.61
2023-05-14T23:31:56.053Z,49.38
2023-05-14T23:34:22.934Z,49.37
2023-05-14T23:36:50.233Z,49.46
2023-05-14T23:39:17.411Z,49.43
2023-05-14T23:41:44.217Z,49.39
2023-05-14T23:44:11.062Z,49.26
2023-05-14T23:46:37.872Z,49.52
2023-05-14T23:49:05.162Z,49.67
2023-05-14T23:51:32.015Z,49.51
2023-05-14T23:53:58.913Z,49.52
2023-05-14T23:56:30.016Z,49.39
2023-05-14T23:58:56.955Z,49.59
